createdAt,value
2024-04-03T00:00:45.926Z,7.61
2024-04-03T00:02:47.556Z,7.60
2024-04-03T00:04:49.208Z,7.58
2024-04-03T00:06:50.848Z,7.45
2024-04-03T00:08:52.470Z,7.53
2024-04-03T00:10:54.074Z,7.43
2024-04-03T00:12:55.772Z,7.40
2024-04-03T00:14:57.412Z,7.36
2024-04-03T00:16:59.047Z,7.31
2024-04-03T00:19:00.663Z,7.35
2024-04-03T00:21:03.976Z,7.33
2024-04-03T00:23:05.832Z,7.27
2024-04-03T00:25:07.460Z,7.31
2024-04-03T00:27:09.132Z,7.42
2024-04-03T00:29:11.450Z,7.38
2024-04-03T00:31:13.062Z,7.26
2024-04-03T00:33:14.693Z,7.23
2024-04-03T00:35:16.412Z,7.23
2024-04-03T00:37:18.918Z,7.21
2024-04-03T00:39:21.602Z,7.23
2024-04-03T00:41:23.311Z,7.20
2024-04-03T00:43:26.150Z,7.15
2024-04-03T00:45:29.423Z,7.18
2024-04-03T00:47:31.062Z,7.05
2024-04-03T00:49:32.734Z,7.09
2024-04-03T00:51:35.952Z,7.00
2024-04-03T00:53:40.711Z,6.94
2024-04-03T00:55:43.054Z,6.78
2024-04-03T00:57:45.065Z,6.73
2024-04-03T00:59:46.697Z,6.74
2024-04-03T01:01:51.949Z,6.86
2024-04-03T01:03:55.998Z,6.88
2024-04-03T01:06:01.981Z,6.69
2024-04-03T01:08:03.882Z,6.61
2024-04-03T01:10:06.705Z,6.73
2024-04-03T01:12:08.577Z,6.67
2024-04-03T01:14:10.213Z,6.62
2024-04-03T01:16:12.121Z,6.58
2024-04-03T01:18:13.748Z,6.57
2024-04-03T01:20:18.999Z,6.45
2024-04-03T01:22:20.615Z,6.51
2024-04-03T01:24:23.619Z,6.42
2024-04-03T01:26:27.164Z,6.54
2024-04-03T01:28:28.823Z,6.48
2024-04-03T01:30:30.444Z,6.44
2024-04-03T01:32:32.644Z,6.46
2024-04-03T01:34:34.278Z,6.51
2024-04-03T01:36:35.907Z,6.31
2024-04-03T01:38:37.561Z,6.30
2024-04-03T01:40:39.185Z,6.22
2024-04-03T01:42:40.815Z,6.23
2024-04-03T01:44:42.505Z,6.19
2024-04-03T01:46:44.142Z,6.20
2024-04-03T01:48:45.762Z,6.18
2024-04-03T01:50:47.776Z,6.28
2024-04-03T01:52:49.429Z,6.24
2024-04-03T01:54:51.067Z,6.18
2024-04-03T01:56:53.145Z,6.06
2024-04-03T01:58:54.757Z,6.04
2024-04-03T02:00:56.418Z,6.00
2024-04-03T02:02:58.539Z,6.03
2024-04-03T02:05:00.597Z,5.99
2024-04-03T02:07:02.268Z,5.97
2024-04-03T02:09:03.956Z,5.95
2024-04-03T02:11:05.572Z,6.09
2024-04-03T02:13:07.216Z,6.05
2024-04-03T02:15:08.850Z,6.02
2024-04-03T02:17:10.477Z,5.96
2024-04-03T02:19:13.028Z,5.94
2024-04-03T02:21:14.637Z,5.92
2024-04-03T02:23:20.168Z,5.76
2024-04-03T02:25:26.693Z,5.73
2024-04-03T02:27:28.437Z,5.63
2024-04-03T02:29:30.122Z,5.57
2024-04-03T02:31:31.766Z,5.59
2024-04-03T02:33:33.420Z,5.56
2024-04-03T02:35:35.038Z,5.57
2024-04-03T02:37:36.667Z,5.58
2024-04-03T02:39:38.317Z,5.48
2024-04-03T02:41:39.935Z,5.41
2024-04-03T02:43:41.802Z,5.46
2024-04-03T02:45:43.432Z,5.54
2024-04-03T02:47:45.066Z,5.54
2024-04-03T02:49:46.813Z,5.43
2024-04-03T02:51:48.443Z,5.38
2024-04-03T02:53:50.210Z,5.38
2024-04-03T02:55:51.830Z,5.31
2024-04-03T02:57:53.458Z,5.23
2024-04-03T02:59:55.091Z,5.29
2024-04-03T03:01:56.697Z,5.30
2024-04-03T03:03:58.355Z,5.25
2024-04-03T03:06:01.851Z,5.09
2024-04-03T03:08:03.708Z,5.04
2024-04-03T03:10:05.347Z,5.09
2024-04-03T03:12:07.109Z,5.09
2024-04-03T03:14:08.734Z,5.07
2024-04-03T03:16:10.380Z,5.05
2024-04-03T03:18:12.024Z,4.95
2024-04-03T03:20:13.676Z,4.90
2024-04-03T03:22:15.328Z,4.94
2024-04-03T03:24:19.811Z,4.99
2024-04-03T03:26:21.524Z,5.05
2024-04-03T03:28:23.160Z,4.95
2024-04-03T03:30:24.820Z,4.89
2024-04-03T03:32:26.447Z,4.90
2024-04-03T03:34:28.081Z,4.87
2024-04-03T03:36:29.695Z,4.81
2024-04-03T03:38:31.373Z,4.87
2024-04-03T03:40:36.724Z,4.86
2024-04-03T03:42:38.342Z,4.85
2024-04-03T03:44:42.602Z,4.75
2024-04-03T03:46:44.642Z,4.75
2024-04-03T03:49:04.710Z,4.70
2024-04-03T03:51:31.709Z,4.83
2024-04-03T03:53:33.337Z,4.69
2024-04-03T03:55:34.976Z,4.63
2024-04-03T03:57:36.612Z,4.59
2024-04-03T03:59:38.241Z,4.73
2024-04-03T04:01:39.885Z,4.65
2024-04-03T04:03:41.629Z,4.58
2024-04-03T04:05:43.283Z,4.47
2024-04-03T04:07:44.900Z,4.63
2024-04-03T04:09:50.743Z,4.56
2024-04-03T04:11:52.391Z,4.40
2024-04-03T04:13:54.002Z,4.46
2024-04-03T04:16:00.001Z,4.41
2024-04-03T04:18:01.639Z,4.45
2024-04-03T04:20:07.651Z,4.53
2024-04-03T04:22:09.296Z,4.43
2024-04-03T04:24:10.928Z,4.38
2024-04-03T04:26:12.572Z,4.41
2024-04-03T04:28:14.211Z,4.46
2024-04-03T04:30:15.898Z,4.51
2024-04-03T04:32:17.567Z,4.52
2024-04-03T04:34:19.207Z,4.48
2024-04-03T04:36:22.135Z,4.46
2024-04-03T04:38:25.022Z,4.47
2024-04-03T04:40:28.114Z,4.47
2024-04-03T04:42:29.734Z,4.50
2024-04-03T04:44:31.934Z,4.55
2024-04-03T04:46:33.616Z,4.46
2024-04-03T04:48:35.278Z,4.49
2024-04-03T04:50:36.905Z,4.53
2024-04-03T04:52:42.064Z,4.53
2024-04-03T04:54:43.692Z,4.49
2024-04-03T04:56:45.333Z,4.45
2024-04-03T04:58:46.995Z,4.48
2024-04-03T05:00:50.211Z,4.47
2024-04-03T05:02:51.833Z,4.58
2024-04-03T05:04:53.470Z,4.60
2024-04-03T05:07:00.981Z,4.61
2024-04-03T05:09:03.242Z,4.62
2024-04-03T05:11:04.868Z,4.62
2024-04-03T05:13:06.496Z,4.70
2024-04-03T05:15:08.958Z,4.80
2024-04-03T05:17:10.594Z,4.82
2024-04-03T05:19:12.214Z,4.85
2024-04-03T05:21:15.426Z,4.91
2024-04-03T05:23:17.037Z,5.06
2024-04-03T05:25:18.939Z,5.05
2024-04-03T05:27:20.554Z,5.01
2024-04-03T05:29:22.183Z,5.06
2024-04-03T05:31:23.807Z,5.10
2024-04-03T05:33:25.445Z,5.20
2024-04-03T05:35:27.082Z,5.36
2024-04-03T05:37:28.698Z,5.46
2024-04-03T05:39:30.486Z,5.54
2024-04-03T05:41:32.107Z,5.66
2024-04-03T05:43:33.725Z,5.79
2024-04-03T05:45:35.352Z,6.01
2024-04-03T05:47:36.965Z,6.14
2024-04-03T05:49:38.594Z,6.19
2024-04-03T05:51:40.211Z,6.41
2024-04-03T05:53:41.831Z,6.61
2024-04-03T05:55:52.790Z,6.73
2024-04-03T05:57:54.544Z,6.79
2024-04-03T05:59:56.555Z,7.16
2024-04-03T06:01:58.166Z,8.25
2024-04-03T06:03:59.819Z,9.44
2024-04-03T06:06:01.476Z,10.53
2024-04-03T06:08:03.330Z,11.82
2024-04-03T06:10:05.446Z,12.86
2024-04-03T06:12:07.236Z,13.60
2024-04-03T06:14:09.429Z,14.41
2024-04-03T06:16:11.044Z,15.04
2024-04-03T06:18:13.136Z,15.92
2024-04-03T06:20:14.789Z,16.67
2024-04-03T06:22:16.443Z,17.21
2024-04-03T06:24:18.055Z,17.74
2024-04-03T06:26:19.693Z,18.42
2024-04-03T06:28:21.302Z,18.72
2024-04-03T06:30:25.673Z,19.23
2024-04-03T06:32:28.873Z,19.64
2024-04-03T06:34:30.496Z,20.26
2024-04-03T06:36:32.136Z,20.64
2024-04-03T06:38:33.789Z,20.90
2024-04-03T06:40:35.422Z,21.15
2024-04-03T06:42:37.496Z,21.53
2024-04-03T06:44:39.902Z,21.53
2024-04-03T06:46:41.524Z,21.66
2024-04-03T06:48:44.543Z,22.15
2024-04-03T06:50:53.211Z,22.22
2024-04-03T06:52:54.833Z,22.25
2024-04-03T06:54:56.722Z,22.21
2024-04-03T06:56:58.347Z,22.71
2024-04-03T06:58:59.987Z,22.56
2024-04-03T07:01:05.138Z,22.78
2024-04-03T07:03:06.764Z,22.75
2024-04-03T07:05:08.650Z,23.09
2024-04-03T07:07:10.970Z,23.26
2024-04-03T07:09:13.044Z,23.64
2024-04-03T07:11:15.493Z,24.09
2024-04-03T07:13:17.433Z,23.84
2024-04-03T07:15:19.064Z,24.10
2024-04-03T07:17:20.703Z,23.65
2024-04-03T07:19:22.370Z,24.42
2024-04-03T07:21:26.909Z,24.28
2024-04-03T07:23:30.199Z,24.10
2024-04-03T07:25:31.829Z,24.74
2024-04-03T07:27:33.498Z,25.23
2024-04-03T07:29:35.124Z,25.37
2024-04-03T07:31:36.774Z,25.81
2024-04-03T07:33:38.379Z,25.87
2024-04-03T07:35:40.680Z,25.86
2024-04-03T07:37:44.505Z,25.92
2024-04-03T07:39:46.132Z,25.84
2024-04-03T07:41:48.106Z,25.36
2024-04-03T07:43:51.686Z,24.23
2024-04-03T07:45:59.977Z,23.75
2024-04-03T07:48:01.653Z,23.11
2024-04-03T07:50:07.769Z,23.81
2024-04-03T07:52:09.481Z,24.10
2024-04-03T07:54:11.105Z,23.48
2024-04-03T07:56:16.311Z,23.19
2024-04-03T07:58:17.927Z,23.66
2024-04-03T08:00:19.678Z,22.94
2024-04-03T08:02:21.322Z,23.19
2024-04-03T08:04:23.545Z,23.76
2024-04-03T08:06:25.718Z,24.52
2024-04-03T08:08:28.752Z,24.29
2024-04-03T08:10:30.368Z,23.72
2024-04-03T08:12:33.243Z,23.69
2024-04-03T08:14:34.861Z,24.31
2024-04-03T08:16:39.408Z,24.30
2024-04-03T08:18:41.279Z,23.74
2024-04-03T08:20:43.257Z,23.49
2024-04-03T08:22:44.900Z,24.21
2024-04-03T08:24:47.321Z,24.82
2024-04-03T08:26:48.963Z,25.06
2024-04-03T08:28:50.578Z,24.37
2024-04-03T08:30:52.861Z,25.13
2024-04-03T08:32:54.864Z,22.80
2024-04-03T08:34:56.501Z,23.81
2024-04-03T08:36:58.608Z,25.34
2024-04-03T08:39:00.258Z,25.89
2024-04-03T08:41:02.291Z,26.10
2024-04-03T08:43:06.153Z,26.47
2024-04-03T08:45:12.742Z,26.83
2024-04-03T08:47:15.613Z,27.41
2024-04-03T08:49:18.111Z,26.99
2024-04-03T08:51:21.620Z,27.58
2024-04-03T08:53:24.536Z,27.48
2024-04-03T08:55:27.175Z,27.80
2024-04-03T08:57:29.391Z,26.55
2024-04-03T08:59:32.586Z,27.03
2024-04-03T09:01:34.664Z,27.34
2024-04-03T09:03:36.964Z,27.59
2024-04-03T09:05:39.124Z,28.05
2024-04-03T09:07:40.888Z,28.09
2024-04-03T09:09:42.523Z,27.25
2024-04-03T09:11:45.124Z,27.93
2024-04-03T09:13:54.127Z,27.52
2024-04-03T09:15:55.763Z,26.31
2024-04-03T09:18:04.376Z,27.36
2024-04-03T09:20:06.366Z,27.94
2024-04-03T09:22:08.025Z,28.12
2024-04-03T09:24:10.030Z,27.99
2024-04-03T09:26:12.078Z,28.43
2024-04-03T09:28:13.804Z,28.18
2024-04-03T09:30:15.462Z,28.03
2024-04-03T09:32:17.075Z,28.37
2024-04-03T09:34:20.377Z,28.58
2024-04-03T09:36:23.168Z,26.38
2024-04-03T09:38:25.014Z,27.33
2024-04-03T09:40:28.970Z,27.16
2024-04-03T09:42:32.259Z,26.83
2024-04-03T09:44:37.438Z,27.37
2024-04-03T09:46:54.562Z,25.95
2024-04-03T09:48:58.461Z,24.70
2024-04-03T09:51:01.017Z,24.68
2024-04-03T09:53:24.025Z,25.30
2024-04-03T09:55:28.721Z,24.76
2024-04-03T09:57:30.641Z,25.44
2024-04-03T09:59:36.595Z,25.50
2024-04-03T10:01:39.944Z,25.06
2024-04-03T10:03:41.847Z,25.08
2024-04-03T10:05:43.634Z,25.55
2024-04-03T10:08:03.175Z,25.64
2024-04-03T10:10:04.992Z,25.61
2024-04-03T10:12:15.062Z,25.67
2024-04-03T10:14:37.705Z,25.83
2024-04-03T10:16:39.360Z,25.52
2024-04-03T10:18:51.291Z,25.16
2024-04-03T10:20:52.915Z,25.33
2024-04-03T10:22:54.909Z,25.83
2024-04-03T10:24:56.550Z,26.26
2024-04-03T10:26:58.850Z,25.62
2024-04-03T10:29:03.635Z,24.76
2024-04-03T10:31:09.708Z,24.35
2024-04-03T10:33:14.834Z,23.25
2024-04-03T10:35:16.499Z,23.50
2024-04-03T10:37:18.142Z,23.59
2024-04-03T10:39:19.910Z,23.65
2024-04-03T10:41:22.443Z,22.32
2024-04-03T10:43:24.172Z,21.75
2024-04-03T10:45:25.866Z,22.12
2024-04-03T10:47:30.027Z,22.21
2024-04-03T10:49:32.579Z,22.35
2024-04-03T10:51:34.277Z,22.90
2024-04-03T10:53:37.096Z,22.60
2024-04-03T10:55:39.591Z,22.92
2024-04-03T10:57:41.207Z,23.38
2024-04-03T10:59:43.342Z,23.65
2024-04-03T11:01:45.007Z,23.14
2024-04-03T11:03:51.411Z,23.71
2024-04-03T11:05:53.035Z,21.96
2024-04-03T11:07:55.597Z,22.29
2024-04-03T11:09:57.399Z,22.76
2024-04-03T11:12:02.460Z,22.30
2024-04-03T11:14:04.091Z,22.19
2024-04-03T11:16:10.497Z,23.29
2024-04-03T11:18:12.133Z,22.84
2024-04-03T11:20:13.783Z,22.61
2024-04-03T11:22:15.442Z,22.92
2024-04-03T11:24:17.082Z,22.82
2024-04-03T11:26:20.849Z,22.66
2024-04-03T11:28:22.474Z,23.46
2024-04-03T11:30:24.169Z,23.93
2024-04-03T11:32:25.916Z,23.98
2024-04-03T11:34:28.621Z,23.87
2024-04-03T11:36:30.285Z,23.17
2024-04-03T11:38:33.677Z,23.40
2024-04-03T11:40:37.720Z,23.31
2024-04-03T11:42:39.410Z,23.01
2024-04-03T11:44:41.171Z,23.35
2024-04-03T11:46:42.852Z,23.73
2024-04-03T11:48:44.522Z,23.60
2024-04-03T11:50:46.550Z,22.85
2024-04-03T11:52:48.179Z,22.94
2024-04-03T11:54:49.822Z,23.30
2024-04-03T11:56:54.746Z,23.72
2024-04-03T11:58:56.710Z,22.77
2024-04-03T12:00:58.345Z,23.22
2024-04-03T12:02:59.979Z,22.65
2024-04-03T12:05:01.613Z,23.54
2024-04-03T12:07:03.256Z,23.79
2024-04-03T12:09:05.658Z,23.63
2024-04-03T12:11:07.854Z,23.82
2024-04-03T12:13:09.480Z,24.13
2024-04-03T12:15:11.144Z,24.03
2024-04-03T12:17:14.740Z,23.44
2024-04-03T12:19:26.687Z,23.40
2024-04-03T12:21:28.523Z,22.92
2024-04-03T12:23:30.337Z,22.88
2024-04-03T12:25:32.170Z,22.73
2024-04-03T12:27:33.800Z,21.92
2024-04-03T12:29:36.178Z,20.95
2024-04-03T12:31:37.799Z,21.46
2024-04-03T12:33:39.419Z,21.60
2024-04-03T12:35:41.056Z,21.10
2024-04-03T12:38:06.610Z,21.19
2024-04-03T12:40:04.875Z,21.02
2024-04-03T12:42:06.569Z,20.92
2024-04-03T12:44:09.907Z,20.71
2024-04-03T12:46:13.790Z,20.62
2024-04-03T12:48:15.409Z,20.43
2024-04-03T12:50:17.111Z,20.62
2024-04-03T12:52:18.957Z,20.07
2024-04-03T12:54:20.609Z,20.38
2024-04-03T12:56:22.258Z,19.97
2024-04-03T12:58:23.897Z,20.22
2024-04-03T13:00:25.533Z,20.27
2024-04-03T13:02:29.030Z,19.80
2024-04-03T13:04:30.658Z,20.19
2024-04-03T13:06:38.251Z,19.90
2024-04-03T13:08:39.887Z,20.04
2024-04-03T13:10:41.724Z,20.06
2024-04-03T13:12:43.351Z,20.03
2024-04-03T13:14:45.051Z,20.10
2024-04-03T13:16:46.686Z,19.86
2024-04-03T13:18:48.725Z,19.88
2024-04-03T13:20:50.396Z,19.74
2024-04-03T13:22:57.033Z,19.72
2024-04-03T13:24:59.301Z,19.64
2024-04-03T13:27:00.940Z,19.55
2024-04-03T13:29:02.620Z,19.49
2024-04-03T13:31:04.319Z,19.23
2024-04-03T13:33:05.953Z,19.12
2024-04-03T13:35:07.578Z,19.17
2024-04-03T13:37:09.216Z,19.15
2024-04-03T13:39:11.967Z,19.09
2024-04-03T13:41:14.044Z,19.20
2024-04-03T13:43:17.667Z,19.10
2024-04-03T13:45:19.624Z,19.17
2024-04-03T13:47:21.251Z,19.19
2024-04-03T13:49:22.894Z,19.08
2024-04-03T13:51:27.721Z,19.14
2024-04-03T13:53:29.329Z,19.07
2024-04-03T13:55:30.959Z,19.13
2024-04-03T13:57:33.048Z,19.18
2024-04-03T13:59:34.897Z,19.26
2024-04-03T14:01:37.355Z,19.25
2024-04-03T14:03:39.417Z,19.26
2024-04-03T14:05:41.052Z,19.13
2024-04-03T14:07:42.922Z,19.07
2024-04-03T14:09:44.570Z,18.93
2024-04-03T14:11:46.388Z,19.06
2024-04-03T14:13:50.221Z,18.92
2024-04-03T14:15:51.858Z,18.82
2024-04-03T14:17:53.518Z,18.73
2024-04-03T14:19:55.147Z,18.82
2024-04-03T14:21:56.791Z,18.79
2024-04-03T14:23:58.422Z,18.70
2024-04-03T14:26:03.795Z,18.64
2024-04-03T14:28:06.020Z,18.69
2024-04-03T14:30:10.426Z,18.70
2024-04-03T14:32:12.077Z,18.71
2024-04-03T14:34:13.724Z,18.73
2024-04-03T14:36:15.353Z,18.69
2024-04-03T14:38:18.595Z,18.55
2024-04-03T14:40:20.955Z,18.43
2024-04-03T14:42:22.653Z,18.16
2024-04-03T14:44:24.924Z,18.26
2024-04-03T14:46:26.568Z,18.32
2024-04-03T14:48:29.610Z,18.22
2024-04-03T14:50:32.170Z,18.17
2024-04-03T14:52:34.079Z,18.25
2024-04-03T14:54:35.794Z,18.25
2024-04-03T14:56:37.442Z,18.32
2024-04-03T14:58:39.075Z,18.21
2024-04-03T15:00:42.410Z,18.30
2024-04-03T15:02:44.144Z,18.17
2024-04-03T15:04:45.842Z,18.09
2024-04-03T15:06:47.608Z,17.97
2024-04-03T15:08:51.936Z,18.08
2024-04-03T15:10:53.569Z,17.92
2024-04-03T15:12:55.191Z,17.80
2024-04-03T15:14:56.917Z,17.84
2024-04-03T15:17:09.602Z,17.92
2024-04-03T15:19:11.539Z,17.83
2024-04-03T15:21:13.383Z,17.84
2024-04-03T15:23:15.023Z,17.78
2024-04-03T15:25:16.710Z,17.73
2024-04-03T15:27:19.280Z,17.59
2024-04-03T15:29:23.083Z,17.56
2024-04-03T15:31:24.739Z,17.50
2024-04-03T15:33:26.365Z,17.45
2024-04-03T15:35:28.003Z,17.43
2024-04-03T15:37:29.854Z,17.39
2024-04-03T15:39:31.988Z,17.40
2024-04-03T15:41:34.154Z,17.37
2024-04-03T15:43:35.852Z,17.41
2024-04-03T15:45:39.888Z,17.36
2024-04-03T15:47:41.518Z,17.27
2024-04-03T15:49:43.487Z,17.15
2024-04-03T15:51:45.455Z,17.08
2024-04-03T15:53:49.182Z,17.09
2024-04-03T15:55:50.815Z,17.11
2024-04-03T15:57:52.578Z,16.99
2024-04-03T15:59:55.182Z,17.03
2024-04-03T16:01:56.910Z,16.93
2024-04-03T16:03:58.554Z,16.84
2024-04-03T16:06:00.209Z,16.89
2024-04-03T16:08:03.095Z,16.80
2024-04-03T16:10:05.211Z,16.75
2024-04-03T16:12:11.462Z,16.74
2024-04-03T16:14:13.912Z,16.67
2024-04-03T16:16:15.550Z,16.68
2024-04-03T16:18:17.177Z,16.69
2024-04-03T16:20:19.031Z,16.59
2024-04-03T16:22:22.750Z,16.61
2024-04-03T16:24:24.483Z,16.62
2024-04-03T16:26:26.111Z,16.57
2024-04-03T16:28:27.756Z,16.50
2024-04-03T16:30:29.379Z,16.46
2024-04-03T16:32:31.025Z,16.53
2024-04-03T16:34:32.681Z,16.47
2024-04-03T16:36:34.330Z,16.42
2024-04-03T16:38:36.041Z,16.45
2024-04-03T16:40:38.330Z,16.40
2024-04-03T16:42:40.665Z,16.35
2024-04-03T16:44:42.484Z,16.41
2024-04-03T16:46:44.793Z,16.42
2024-04-03T16:48:46.473Z,16.33
2024-04-03T16:50:48.182Z,16.33
2024-04-03T16:52:50.105Z,16.33
2024-04-03T16:54:54.704Z,16.33
2024-04-03T16:56:57.004Z,16.24
2024-04-03T16:58:58.683Z,16.26
2024-04-03T17:01:08.237Z,16.22
2024-04-03T17:03:09.867Z,16.21
2024-04-03T17:05:11.645Z,16.20
2024-04-03T17:07:13.788Z,16.17
2024-04-03T17:09:15.650Z,16.11
2024-04-03T17:11:17.307Z,16.08
2024-04-03T17:13:19.992Z,16.04
2024-04-03T17:15:21.675Z,16.05
2024-04-03T17:17:23.342Z,16.04
2024-04-03T17:19:25.772Z,16.02
2024-04-03T17:21:27.467Z,15.99
2024-04-03T17:23:29.993Z,15.94
2024-04-03T17:25:31.907Z,15.94
2024-04-03T17:27:33.734Z,15.90
2024-04-03T17:29:36.376Z,15.86
2024-04-03T17:31:38.235Z,15.83
2024-04-03T17:33:40.244Z,15.75
2024-04-03T17:35:43.059Z,15.75
2024-04-03T17:37:46.053Z,15.77
2024-04-03T17:39:47.811Z,15.69
2024-04-03T17:41:50.149Z,15.68
2024-04-03T17:43:53.648Z,15.68
2024-04-03T17:45:55.940Z,15.64
2024-04-03T17:47:57.884Z,15.62
2024-04-03T17:50:00.730Z,15.52
2024-04-03T17:52:02.934Z,15.41
2024-04-03T17:54:06.088Z,15.37
2024-04-03T17:56:08.239Z,15.26
2024-04-03T17:58:11.687Z,15.28
2024-04-03T18:00:14.435Z,15.24
2024-04-03T18:02:18.390Z,15.17
2024-04-03T18:04:20.407Z,15.21
2024-04-03T18:06:22.804Z,15.11
2024-04-03T18:08:28.404Z,15.07
2024-04-03T18:10:30.706Z,14.96
2024-04-03T18:12:35.279Z,14.94
2024-04-03T18:14:38.400Z,14.83
2024-04-03T18:16:40.717Z,14.88
2024-04-03T18:18:43.105Z,14.87
2024-04-03T18:20:46.171Z,14.82
2024-04-03T18:22:48.117Z,14.80
2024-04-03T18:24:50.066Z,14.84
2024-04-03T18:26:52.720Z,14.84
2024-04-03T18:28:54.551Z,14.86
2024-04-03T18:30:57.683Z,14.79
2024-04-03T18:33:00.841Z,14.76
2024-04-03T18:35:03.724Z,14.80
2024-04-03T18:37:05.988Z,14.79
2024-04-03T18:39:08.284Z,14.83
2024-04-03T18:41:10.035Z,14.71
2024-04-03T18:43:12.518Z,14.65
2024-04-03T18:45:15.049Z,14.68
2024-04-03T18:47:17.162Z,14.61
2024-04-03T18:49:19.665Z,14.67
2024-04-03T18:51:22.137Z,14.54
2024-04-03T18:53:24.133Z,14.59
2024-04-03T18:55:26.803Z,14.57
2024-04-03T18:57:29.552Z,14.58
2024-04-03T18:59:32.626Z,14.47
2024-04-03T19:01:36.123Z,14.44
2024-04-03T19:03:38.563Z,14.32
2024-04-03T19:05:40.970Z,14.18
2024-04-03T19:07:44.089Z,14.23
2024-04-03T19:09:46.347Z,14.22
2024-04-03T19:11:48.284Z,14.23
2024-04-03T19:13:50.592Z,14.24
2024-04-03T19:16:09.058Z,14.18
2024-04-03T19:18:14.224Z,14.15
2024-04-03T19:20:16.365Z,14.11
2024-04-03T19:22:19.289Z,14.06
2024-04-03T19:24:21.857Z,14.05
2024-04-03T19:26:24.362Z,14.03
2024-04-03T19:28:30.650Z,13.99
2024-04-03T19:30:32.844Z,13.91
2024-04-03T19:32:38.456Z,13.88
2024-04-03T19:34:41.075Z,13.89
2024-04-03T19:36:43.804Z,13.87
2024-04-03T19:38:46.175Z,13.79
2024-04-03T19:40:48.954Z,13.73
2024-04-03T19:42:53.816Z,13.68
2024-04-03T19:45:01.429Z,13.75
2024-04-03T19:47:04.329Z,13.82
2024-04-03T19:49:06.843Z,13.85
2024-04-03T19:51:08.721Z,13.79
2024-04-03T19:53:12.083Z,13.78
2024-04-03T19:55:14.649Z,13.77
2024-04-03T19:57:16.400Z,13.74
2024-04-03T19:59:18.315Z,13.71
2024-04-03T20:01:21.695Z,13.73
2024-04-03T20:03:23.447Z,13.73
2024-04-03T20:05:25.933Z,13.67
2024-04-03T20:07:27.590Z,13.71
2024-04-03T20:09:29.242Z,13.74
2024-04-03T20:11:30.886Z,13.70
2024-04-03T20:13:32.519Z,13.72
2024-04-03T20:15:34.160Z,13.69
2024-04-03T20:17:36.592Z,13.70
2024-04-03T20:19:38.218Z,13.74
2024-04-03T20:21:39.883Z,13.77
2024-04-03T20:23:41.572Z,13.75
2024-04-03T20:25:45.953Z,13.70
2024-04-03T20:27:47.614Z,13.58
2024-04-03T20:29:49.268Z,13.52
2024-04-03T20:31:50.895Z,13.48
2024-04-03T20:33:52.543Z,13.50
2024-04-03T20:35:56.025Z,13.43
2024-04-03T20:37:58.575Z,13.40
2024-04-03T20:40:01.165Z,13.45
2024-04-03T20:42:03.723Z,13.49
2024-04-03T20:44:05.382Z,13.54
2024-04-03T20:46:08.460Z,13.53
2024-04-03T20:48:10.075Z,13.54
2024-04-03T20:50:11.814Z,13.57
2024-04-03T20:52:13.449Z,13.52
2024-04-03T20:54:15.096Z,13.52
2024-04-03T20:56:17.132Z,13.51
2024-04-03T20:58:18.776Z,13.50
2024-04-03T21:00:20.425Z,13.41
2024-04-03T21:02:22.072Z,13.41
2024-04-03T21:04:23.711Z,13.43
2024-04-03T21:06:25.360Z,13.36
2024-04-03T21:08:26.969Z,13.44
2024-04-03T21:10:28.790Z,13.38
2024-04-03T21:12:32.379Z,13.44
2024-04-03T21:14:34.000Z,13.47
2024-04-03T21:16:35.629Z,13.47
2024-04-03T21:18:37.250Z,13.40
2024-04-03T21:20:38.879Z,13.43
2024-04-03T21:22:41.512Z,13.46
2024-04-03T21:24:43.382Z,13.40
2024-04-03T21:26:45.053Z,13.47
2024-04-03T21:28:46.691Z,13.41
2024-04-03T21:30:48.355Z,13.43
2024-04-03T21:32:49.991Z,13.42
2024-04-03T21:34:51.616Z,13.39
2024-04-03T21:36:53.303Z,13.45
2024-04-03T21:38:54.948Z,13.41
2024-04-03T21:40:56.589Z,13.35
2024-04-03T21:42:58.232Z,13.29
2024-04-03T21:44:59.976Z,13.23
2024-04-03T21:47:01.624Z,13.23
2024-04-03T21:49:03.254Z,13.22
2024-04-03T21:51:04.900Z,13.17
2024-04-03T21:53:11.564Z,13.09
2024-04-03T21:55:13.226Z,13.05
2024-04-03T21:57:14.853Z,12.99
2024-04-03T21:59:17.418Z,12.90
2024-04-03T22:01:19.053Z,12.81
2024-04-03T22:03:20.675Z,12.83
2024-04-03T22:05:22.456Z,12.92
2024-04-03T22:07:24.071Z,12.94
2024-04-03T22:09:25.798Z,12.96
2024-04-03T22:11:27.440Z,12.86
2024-04-03T22:13:29.060Z,12.77
2024-04-03T22:15:30.815Z,12.80
2024-04-03T22:17:32.486Z,12.81
2024-04-03T22:19:34.161Z,12.83
2024-04-03T22:21:35.824Z,12.68
2024-04-03T22:23:37.445Z,12.57
2024-04-03T22:25:39.071Z,12.57
2024-04-03T22:27:40.720Z,12.54
2024-04-03T22:29:43.579Z,12.39
2024-04-03T22:31:45.236Z,12.37
2024-04-03T22:33:46.892Z,12.32
2024-04-03T22:35:49.438Z,12.22
2024-04-03T22:37:51.067Z,12.18
2024-04-03T22:39:52.754Z,12.15
2024-04-03T22:41:54.424Z,12.07
2024-04-03T22:43:56.058Z,12.01
2024-04-03T22:45:58.666Z,12.01
2024-04-03T22:48:00.342Z,12.08
2024-04-03T22:50:02.001Z,12.07
2024-04-03T22:52:03.921Z,12.00
2024-04-03T22:54:05.573Z,11.96
2024-04-03T22:56:07.205Z,12.03
2024-04-03T22:58:08.855Z,12.07
2024-04-03T23:00:10.929Z,12.05
2024-04-03T23:02:12.598Z,12.04
2024-04-03T23:04:14.232Z,11.95
2024-04-03T23:06:15.863Z,11.95
2024-04-03T23:08:17.505Z,11.93
2024-04-03T23:10:19.168Z,11.81
2024-04-03T23:12:20.825Z,11.84
2024-04-03T23:14:22.441Z,11.79
2024-04-03T23:16:24.095Z,11.76
2024-04-03T23:18:25.898Z,11.72
2024-04-03T23:20:27.521Z,11.67
2024-04-03T23:22:29.162Z,11.69
2024-04-03T23:24:30.789Z,11.78
2024-04-03T23:26:32.429Z,11.87
2024-04-03T23:28:34.075Z,11.83
2024-04-03T23:30:35.697Z,11.74
2024-04-03T23:32:37.424Z,11.70
2024-04-03T23:34:39.045Z,11.66
2024-04-03T23:36:40.701Z,11.69
2024-04-03T23:38:42.333Z,11.70
2024-04-03T23:40:43.972Z,11.64
2024-04-03T23:42:45.673Z,11.59
2024-04-03T23:44:47.332Z,11.55
2024-04-03T23:46:48.957Z,11.56
2024-04-03T23:48:50.883Z,11.56
2024-04-03T23:50:53.595Z,11.57
2024-04-03T23:52:55.241Z,11.56
2024-04-03T23:54:56.872Z,11.56
2024-04-03T23:56:58.500Z,11.57
2024-04-03T23:59:00.120Z,11.62
